Time;durP1;ratioP1;P1;durP2;ratioP2;P2;SDS_P1;SDS_P2;PMS_P1;PMS_P2;Temp;Humidity;BMP_temperature;BMP_pressure;BME280_temperature;BME280_humidity;BME280_pressure;Samples;Min_cycle;Max_cycle;Signal;HPM_P1;HPM_P2
2021/08/08 00:01:02;;;;;;;1.80;1.60;;;;;;;;;;10322463;28;20067;-53
2021/08/08 00:06:02;;;;;;;2.42;2.22;;;;;;;;;;10321517;28;20044;-58
2021/08/08 00:11:00;;;;;;;4.50;2.10;;;;;;;;;;10321886;28;20091;-59
2021/08/08 00:15:58;;;;;;;2.30;1.95;;;;;;;;;;10321683;28;20048;-59
2021/08/08 00:20:57;;;;;;;2.60;1.92;;;;;;;;;;10321353;28;20132;-59
2021/08/08 00:25:57;;;;;;;4.20;2.15;;;;;;;;;;10321446;28;20059;-59
2021/08/08 00:30:56;;;;;;;3.70;2.30;;;;;;;;;;10321246;28;20084;-58
2021/08/08 00:35:54;;;;;;;2.40;1.98;;;;;;;;;;10319137;28;20064;-58
2021/08/08 00:40:57;;;;;;;2.55;2.28;;;;;;;;;;10319357;28;20417;-58
2021/08/08 00:45:55;;;;;;;2.00;1.80;;;;;;;;;;10319144;28;20484;-58
2021/08/08 00:50:55;;;;;;;2.72;1.92;;;;;;;;;;10320304;28;20497;-58
2021/08/08 00:56:05;;;;;;;3.97;2.25;;;;;;;;;;10318954;28;20056;-57
2021/08/08 01:01:05;;;;;;;5.88;2.05;;;;;;;;;;10318748;28;20083;-58
2021/08/08 01:06:06;;;;;;;2.78;1.90;;;;;;;;;;10318628;28;20048;-58
2021/08/08 01:11:06;;;;;;;2.58;2.10;;;;;;;;;;10318133;28;20052;-57
2021/08/08 01:16:06;;;;;;;1.73;1.58;;;;;;;;;;10318027;28;20044;-58
2021/08/08 01:21:05;;;;;;;2.85;2.33;;;;;;;;;;10317605;28;20045;-58
2021/08/08 01:26:06;;;;;;;2.05;1.85;;;;;;;;;;10317561;28;20044;-57
2021/08/08 01:31:05;;;;;;;2.55;1.88;;;;;;;;;;10316890;28;20058;-58
2021/08/08 01:36:04;;;;;;;2.20;1.95;;;;;;;;;;10316693;28;20063;-59
2021/08/08 01:41:07;;;;;;;2.38;2.17;;;;;;;;;;10317524;28;20048;-56
2021/08/08 01:46:13;;;;;;;2.40;1.83;;;;;;;;;;10316136;28;20041;-57
2021/08/08 01:51:35;;;;;;;2.15;1.90;;;;;;;;;;10317603;28;20090;-58
2021/08/08 01:56:35;;;;;;;2.03;1.83;;;;;;;;;;10315395;28;20048;-58
2021/08/08 02:01:34;;;;;;;2.20;2.00;;;;;;;;;;10315964;28;20071;-58
2021/08/08 02:06:45;;;;;;;2.30;2.10;;;;;;;;;;10315890;28;20417;-58
2021/08/08 02:11:47;;;;;;;5.25;2.03;;;;;;;;;;10315732;28;20083;-58
2021/08/08 02:16:47;;;;;;;2.92;2.00;;;;;;;;;;10315868;28;20059;-58
2021/08/08 02:21:49;;;;;;;2.63;2.40;;;;;;;;;;10315550;28;20508;-58
2021/08/08 02:26:51;;;;;;;4.63;2.53;;;;;;;;;;10315737;28;20052;-58
2021/08/08 02:31:50;;;;;;;4.90;2.55;;;;;;;;;;10315269;28;20048;-59
2021/08/08 02:37:00;;;;;;;10.23;3.20;;;;;;;;;;10315068;28;20428;-55
2021/08/08 02:42:02;;;;;;;4.20;2.75;;;;;;;;;;10315468;28;20059;-59
2021/08/08 02:47:03;;;;;;;5.85;2.90;;;;;;;;;;10314792;28;20049;-59
2021/08/08 02:52:02;;;;;;;3.65;3.20;;;;;;;;;;10315304;28;20084;-59
2021/08/08 02:57:04;;;;;;;4.18;3.78;;;;;;;;;;10314883;28;20515;-59
2021/08/08 03:02:03;;;;;;;5.45;4.18;;;;;;;;;;10314899;28;20049;-57
2021/08/08 03:07:02;;;;;;;5.07;4.20;;;;;;;;;;10314673;28;20111;-58
2021/08/08 03:12:00;;;;;;;6.93;3.78;;;;;;;;;;10322011;28;20079;-59
2021/08/08 03:17:06;;;;;;;5.40;3.78;;;;;;;;;;10308821;28;20059;-59
2021/08/08 03:22:06;;;;;;;4.80;4.35;;;;;;;;;;10283025;28;20049;-57
2021/08/08 03:27:06;;;;;;;8.40;4.22;;;;;;;;;;10281011;28;20056;-58
2021/08/08 03:32:07;;;;;;;3.83;3.13;;;;;;;;;;10287888;28;20079;-59
2021/08/08 03:37:06;;;;;;;4.65;3.38;;;;;;;;;;10299469;28;20056;-60
2021/08/08 03:42:08;;;;;;;6.85;3.38;;;;;;;;;;10300631;28;20455;-58
2021/08/08 03:47:10;;;;;;;4.13;3.38;;;;;;;;;;10292564;28;20056;-58
2021/08/08 03:52:10;;;;;;;5.10;3.08;;;;;;;;;;10292925;28;20091;-59
2021/08/08 03:57:09;;;;;;;6.00;3.50;;;;;;;;;;10301372;28;20084;-59
2021/08/08 04:02:07;;;;;;;3.05;2.53;;;;;;;;;;10283758;28;20084;-55
2021/08/08 04:07:08;;;;;;;7.28;2.90;;;;;;;;;;10267235;28;20561;-56
2021/08/08 04:12:07;;;;;;;4.43;2.90;;;;;;;;;;10305051;28;20052;-56
2021/08/08 04:17:06;;;;;;;3.95;3.00;;;;;;;;;;10284459;28;20087;-57
2021/08/08 04:22:05;;;;;;;4.82;4.22;;;;;;;;;;10278439;28;20045;-56
2021/08/08 04:27:06;;;;;;;4.15;3.47;;;;;;;;;;10295037;28;20076;-56
2021/08/08 04:32:04;;;;;;;4.25;2.63;;;;;;;;;;10285734;28;20080;-55
2021/08/08 04:37:03;;;;;;;11.52;8.30;;;;;;;;;;10283549;28;20530;-58
2021/08/08 04:42:02;;;;;;;8.82;7.68;;;;;;;;;;10279011;28;20071;-58
2021/08/08 04:47:05;;;;;;;6.70;4.35;;;;;;;;;;10301113;28;20060;-59
2021/08/08 04:52:05;;;;;;;3.45;2.75;;;;;;;;;;10309712;28;20057;-58
2021/08/08 04:57:03;;;;;;;5.95;3.40;;;;;;;;;;10279741;28;20059;-58
2021/08/08 05:02:03;;;;;;;7.80;3.65;;;;;;;;;;10277982;28;20071;-58
2021/08/08 05:07:04;;;;;;;2.60;2.40;;;;;;;;;;10277772;28;20053;-58
2021/08/08 05:12:03;;;;;;;4.95;3.40;;;;;;;;;;10279723;28;20084;-58
2021/08/08 05:17:05;;;;;;;9.50;6.03;;;;;;;;;;10295755;28;20418;-59
2021/08/08 05:22:05;;;;;;;7.43;6.63;;;;;;;;;;10317433;28;20486;-59
2021/08/08 05:27:04;;;;;;;6.30;3.95;;;;;;;;;;10317451;28;20044;-58
2021/08/08 05:32:03;;;;;;;13.23;5.60;;;;;;;;;;10318335;28;20112;-57
2021/08/08 05:37:01;;;;;;;7.93;3.58;;;;;;;;;;10291663;28;20343;-57
2021/08/08 05:42:03;;;;;;;7.80;3.85;;;;;;;;;;10316925;28;20056;-58
2021/08/08 05:47:01;;;;;;;8.43;2.65;;;;;;;;;;10316928;28;20067;-58
2021/08/08 05:52:00;;;;;;;3.47;2.50;;;;;;;;;;10315419;28;20087;-57
2021/08/08 05:56:59;;;;;;;5.72;4.88;;;;;;;;;;10314096;28;20364;-58
2021/08/08 06:01:59;;;;;;;7.85;3.75;;;;;;;;;;10314195;28;20088;-58
2021/08/08 06:06:58;;;;;;;4.85;2.80;;;;;;;;;;10314382;28;20059;-59
2021/08/08 06:11:57;;;;;;;6.40;3.60;;;;;;;;;;10315763;28;20059;-59
2021/08/08 06:16:55;;;;;;;3.40;2.30;;;;;;;;;;10316469;28;20078;-59
2021/08/08 06:21:55;;;;;;;5.28;4.78;;;;;;;;;;10317232;28;20052;-59
2021/08/08 06:26:53;;;;;;;4.57;2.40;;;;;;;;;;10315269;28;20055;-60
2021/08/08 06:31:52;;;;;;;3.20;2.40;;;;;;;;;;10315189;28;20497;-59
2021/08/08 06:36:50;;;;;;;6.55;3.75;;;;;;;;;;10315016;28;20075;-59
2021/08/08 06:41:50;;;;;;;4.55;3.67;;;;;;;;;;10314835;28;20428;-59
2021/08/08 06:46:58;;;;;;;5.43;4.10;;;;;;;;;;10314814;28;20445;-59
2021/08/08 06:51:59;;;;;;;12.10;9.20;;;;;;;;;;10315705;28;20095;-59
2021/08/08 06:56:59;;;;;;;4.95;4.30;;;;;;;;;;10314722;28;20517;-59
2021/08/08 07:01:57;;;;;;;6.45;3.10;;;;;;;;;;10316407;28;20079;-58
2021/08/08 07:06:56;;;;;;;3.60;2.45;;;;;;;;;;10314394;28;20049;-59
2021/08/08 07:11:54;;;;;;;3.58;2.47;;;;;;;;;;10313913;28;20450;-58
2021/08/08 07:17:03;;;;;;;2.72;2.53;;;;;;;;;;10314616;28;20055;-58
2021/08/08 07:22:03;;;;;;;3.17;1.77;;;;;;;;;;10314547;28;20049;-58
2021/08/08 07:27:03;;;;;;;3.28;2.97;;;;;;;;;;10314505;28;20049;-59
2021/08/08 07:32:03;;;;;;;3.35;2.88;;;;;;;;;;10315767;28;20469;-59
2021/08/08 07:37:02;;;;;;;3.97;2.35;;;;;;;;;;10314244;28;20060;-58
2021/08/08 07:42:02;;;;;;;4.28;2.75;;;;;;;;;;10313705;28;20072;-59
2021/08/08 07:47:02;;;;;;;5.57;2.30;;;;;;;;;;10314065;28;20048;-58
2021/08/08 07:52:01;;;;;;;8.23;2.22;;;;;;;;;;10313715;28;20044;-59
2021/08/08 07:56:59;;;;;;;4.13;3.50;;;;;;;;;;10319916;28;20041;-59
2021/08/08 08:01:59;;;;;;;5.35;2.20;;;;;;;;;;10320978;28;20131;-59
2021/08/08 08:07:00;;;;;;;6.10;2.55;;;;;;;;;;10320711;28;20051;-59
2021/08/08 08:11:59;;;;;;;5.30;2.30;;;;;;;;;;10320537;28;20504;-58
2021/08/08 08:16:57;;;;;;;2.85;2.38;;;;;;;;;;10319846;28;20048;-59
2021/08/08 08:21:56;;;;;;;7.68;2.30;;;;;;;;;;10319950;28;20425;-58
2021/08/08 08:26:56;;;;;;;6.40;2.97;;;;;;;;;;10321580;28;20092;-59
2021/08/08 08:31:54;;;;;;;2.42;2.17;;;;;;;;;;10318965;28;20524;-59
2021/08/08 08:36:53;;;;;;;2.15;2.00;;;;;;;;;;10320644;28;20473;-59
2021/08/08 08:41:53;;;;;;;2.90;2.22;;;;;;;;;;10319245;28;20056;-59
2021/08/08 08:46:55;;;;;;;2.28;2.08;;;;;;;;;;10318999;28;20044;-59
2021/08/08 08:51:55;;;;;;;;;;;;;;;;;;10319411;28;20532;-59
2021/08/08 08:56:53;;;;;;;2.60;1.98;;;;;;;;;;10318965;28;19927;-59
2021/08/08 09:01:53;;;;;;;3.58;2.95;;;;;;;;;;10320160;28;20505;-59
2021/08/08 09:06:51;;;;;;;3.22;2.92;;;;;;;;;;10319648;28;20519;-60
2021/08/08 09:11:52;;;;;;;3.95;2.85;;;;;;;;;;10318063;28;20049;-59
2021/08/08 09:16:55;;;;;;;3.70;2.33;;;;;;;;;;10317525;28;20055;-58
2021/08/08 09:21:59;;;;;;;2.47;2.28;;;;;;;;;;10314821;28;20102;-59
2021/08/08 09:27:04;;;;;;;5.25;4.10;;;;;;;;;;10314689;28;20072;-58
2021/08/08 09:32:04;;;;;;;4.43;2.55;;;;;;;;;;10316774;28;20086;-59
2021/08/08 09:37:04;;;;;;;3.60;2.78;;;;;;;;;;10318428;28;20087;-60
2021/08/08 09:42:09;;;;;;;6.50;2.35;;;;;;;;;;10317731;28;20036;-59
2021/08/08 09:47:09;;;;;;;6.03;2.63;;;;;;;;;;10318621;28;20044;-59
2021/08/08 09:52:07;;;;;;;5.68;2.65;;;;;;;;;;10318306;28;20071;-59
2021/08/08 09:57:06;;;;;;;3.60;2.90;;;;;;;;;;10317330;28;20045;-59
2021/08/08 10:02:05;;;;;;;1.90;1.77;;;;;;;;;;10317958;28;20041;-58
2021/08/08 10:07:06;;;;;;;5.97;2.33;;;;;;;;;;10318120;28;20048;-59
2021/08/08 10:12:13;;;;;;;2.47;1.80;;;;;;;;;;10317755;28;20114;-59
2021/08/08 10:17:12;;;;;;;3.00;2.67;;;;;;;;;;10317085;28;20048;-59
2021/08/08 10:22:12;;;;;;;2.90;2.40;;;;;;;;;;10317605;28;20044;-60
2021/08/08 10:27:21;;;;;;;3.80;2.58;;;;;;;;;;10317312;28;20071;-60
2021/08/08 10:32:19;;;;;;;3.22;2.60;;;;;;;;;;10317345;28;20079;-59
2021/08/08 10:37:21;;;;;;;2.47;1.92;;;;;;;;;;10315983;28;20083;-59
2021/08/08 10:42:21;;;;;;;;;;;;;;;;;;10317492;28;20083;-60
2021/08/08 10:47:26;;;;;;;3.35;3.05;;;;;;;;;;10316894;28;19920;-58
2021/08/08 10:52:25;;;;;;;2.92;2.53;;;;;;;;;;10316848;28;20083;-59
2021/08/08 10:57:24;;;;;;;2.70;2.50;;;;;;;;;;10316532;28;20056;-59
2021/08/08 11:02:25;;;;;;;5.00;2.45;;;;;;;;;;10316506;28;20505;-59
2021/08/08 11:07:27;;;;;;;2.72;2.50;;;;;;;;;;10316404;28;20037;-59
2021/08/08 11:12:32;;;;;;;5.10;2.45;;;;;;;;;;10316221;28;20084;-59
2021/08/08 11:17:31;;;;;;;2.58;2.20;;;;;;;;;;10316146;28;20056;-59
2021/08/08 11:22:30;;;;;;;3.17;2.88;;;;;;;;;;10315116;28;20052;-60
2021/08/08 11:27:32;;;;;;;3.63;2.95;;;;;;;;;;10316108;28;20488;-60
2021/08/08 11:32:31;;;;;;;5.03;2.88;;;;;;;;;;10322779;28;20071;-60
2021/08/08 11:37:31;;;;;;;3.38;3.08;;;;;;;;;;10322912;28;20049;-59
2021/08/08 11:42:30;;;;;;;2.33;2.13;;;;;;;;;;10323435;28;20070;-59
2021/08/08 11:47:29;;;;;;;3.63;2.63;;;;;;;;;;10323252;28;20049;-59
2021/08/08 11:52:27;;;;;;;2.22;1.90;;;;;;;;;;10322995;28;20072;-59
2021/08/08 11:57:27;;;;;;;4.43;2.78;;;;;;;;;;10323056;28;20474;-60
2021/08/08 12:02:27;;;;;;;4.05;3.08;;;;;;;;;;10322732;28;20060;-60
2021/08/08 12:07:28;;;;;;;3.03;2.53;;;;;;;;;;10322617;28;20052;-59
2021/08/08 12:12:34;;;;;;;6.38;2.85;;;;;;;;;;10322720;28;20076;-59
2021/08/08 12:17:32;;;;;;;4.43;3.15;;;;;;;;;;10322548;28;20493;-59
2021/08/08 12:22:31;;;;;;;2.72;2.40;;;;;;;;;;10322173;28;20525;-59
2021/08/08 12:27:30;;;;;;;2.53;2.30;;;;;;;;;;10322082;28;20049;-58
2021/08/08 12:32:34;;;;;;;3.42;2.70;;;;;;;;;;10321652;28;20072;-59
2021/08/08 12:37:32;;;;;;;4.72;2.13;;;;;;;;;;10321094;28;20056;-60
2021/08/08 12:42:31;;;;;;;2.33;2.13;;;;;;;;;;10320831;28;20481;-60
2021/08/08 12:47:31;;;;;;;2.90;2.17;;;;;;;;;;10320236;28;20413;-60
2021/08/08 12:52:30;;;;;;;2.45;2.25;;;;;;;;;;10320762;28;20095;-60
2021/08/08 12:57:29;;;;;;;2.50;2.30;;;;;;;;;;10320615;28;20138;-60
2021/08/08 13:02:27;;;;;;;4.60;2.47;;;;;;;;;;10320472;28;20398;-62
2021/08/08 13:07:25;;;;;;;8.45;2.13;;;;;;;;;;10320151;28;20068;-60
2021/08/08 13:12:25;;;;;;;4.10;2.40;;;;;;;;;;10320014;28;20040;-60
2021/08/08 13:17:24;;;;;;;3.22;2.13;;;;;;;;;;10320018;28;20413;-60
2021/08/08 13:22:22;;;;;;;3.47;2.28;;;;;;;;;;10317843;28;20056;-60
2021/08/08 13:27:20;;;;;;;4.25;3.03;;;;;;;;;;10319614;28;20055;-60
2021/08/08 13:32:20;;;;;;;4.00;3.60;;;;;;;;;;10319426;28;20048;-60
2021/08/08 13:37:18;;;;;;;4.18;3.78;;;;;;;;;;10318323;28;20056;-60
2021/08/08 13:42:17;;;;;;;3.40;3.10;;;;;;;;;;10318827;28;20486;-59
2021/08/08 13:47:15;;;;;;;4.07;3.03;;;;;;;;;;10317635;28;20500;-60
2021/08/08 13:52:15;;;;;;;2.60;2.40;;;;;;;;;;10317936;28;20044;-61
2021/08/08 13:57:13;;;;;;;2.88;2.67;;;;;;;;;;10318402;28;20106;-59
2021/08/08 14:02:12;;;;;;;6.40;3.53;;;;;;;;;;10317689;28;20075;-60
2021/08/08 14:07:10;;;;;;;3.53;3.20;;;;;;;;;;10316921;28;20045;-60
2021/08/08 14:12:11;;;;;;;5.18;2.75;;;;;;;;;;10317107;28;20044;-60
2021/08/08 14:17:09;;;;;;;5.55;3.67;;;;;;;;;;10317829;28;20509;-60
2021/08/08 14:22:08;;;;;;;6.35;4.63;;;;;;;;;;10317773;28;20040;-60
2021/08/08 14:27:07;;;;;;;3.90;3.50;;;;;;;;;;10317721;28;20041;-60
2021/08/08 14:32:09;;;;;;;3.30;2.58;;;;;;;;;;10316840;28;20072;-59
2021/08/08 14:37:08;;;;;;;4.53;3.90;;;;;;;;;;10317516;28;20529;-59
2021/08/08 14:42:10;;;;;;;5.65;3.42;;;;;;;;;;10315015;28;20048;-59
2021/08/08 14:47:10;;;;;;;3.27;2.97;;;;;;;;;;10316697;28;20482;-58
2021/08/08 14:52:08;;;;;;;7.25;6.05;;;;;;;;;;10316900;28;20041;-59
2021/08/08 14:57:07;;;;;;;4.95;4.45;;;;;;;;;;10316947;28;20103;-60
2021/08/08 15:02:05;;;;;;;4.50;4.10;;;;;;;;;;10316917;28;20073;-60
2021/08/08 15:07:05;;;;;;;5.90;4.05;;;;;;;;;;10323296;28;20048;-60
2021/08/08 15:12:05;;;;;;;4.95;3.92;;;;;;;;;;10324839;28;20056;-60
2021/08/08 15:17:04;;;;;;;4.57;3.70;;;;;;;;;;10324525;28;20096;-60
2021/08/08 15:22:03;;;;;;;7.03;6.32;;;;;;;;;;10322630;28;20040;-60
2021/08/08 15:27:03;;;;;;;10.38;9.30;;;;;;;;;;10324236;28;20064;-60
2021/08/08 15:32:01;;;;;;;8.10;5.80;;;;;;;;;;10324315;28;20040;-60
2021/08/08 15:36:59;;;;;;;7.18;5.93;;;;;;;;;;10322946;28;20514;-60
2021/08/08 15:41:58;;;;;;;8.60;7.72;;;;;;;;;;10323905;28;20040;-60
2021/08/08 15:46:57;;;;;;;10.70;8.50;;;;;;;;;;10323490;28;20095;-60
2021/08/08 15:51:56;;;;;;;9.60;7.30;;;;;;;;;;10323241;28;20136;-61
2021/08/08 15:56:54;;;;;;;13.35;11.10;;;;;;;;;;10321930;28;20106;-58
2021/08/08 16:01:52;;;;;;;8.23;7.18;;;;;;;;;;10322636;28;20427;-58
2021/08/08 16:06:54;;;;;;;10.90;9.90;;;;;;;;;;10322125;28;20059;-60
2021/08/08 16:11:53;;;;;;;9.02;7.93;;;;;;;;;;10321476;28;20444;-59
2021/08/08 16:16:51;;;;;;;18.50;16.55;;;;;;;;;;10320394;28;20110;-59
2021/08/08 16:21:49;;;;;;;12.30;11.05;;;;;;;;;;10310778;28;20273;-59
2021/08/08 16:26:49;;;;;;;6.47;5.88;;;;;;;;;;10294032;28;20064;-58
2021/08/08 16:31:48;;;;;;;12.93;9.15;;;;;;;;;;10285332;28;20061;-59
2021/08/08 16:36:46;;;;;;;10.40;9.00;;;;;;;;;;10302004;28;20083;-61
2021/08/08 16:41:45;;;;;;;12.73;11.43;;;;;;;;;;10294360;28;20129;-58
2021/08/08 16:46:46;;;;;;;13.70;11.98;;;;;;;;;;10316620;28;20283;-57
2021/08/08 16:51:44;;;;;;;11.57;10.48;;;;;;;;;;10280169;28;20044;-58
2021/08/08 16:56:59;;;;;;;7.88;5.00;;;;;;;;;;10279599;28;20072;-59
2021/08/08 17:01:59;;;;;;;15.10;10.27;;;;;;;;;;10280136;28;20057;-58
2021/08/08 17:06:58;;;;;;;13.23;10.80;;;;;;;;;;10286492;28;20068;-58
2021/08/08 17:11:56;;;;;;;9.35;8.10;;;;;;;;;;10316225;28;20052;-59
2021/08/08 17:16:54;;;;;;;8.02;6.68;;;;;;;;;;10299921;28;20083;-57
2021/08/08 17:21:54;;;;;;;14.85;12.32;;;;;;;;;;10283788;28;20446;-58
2021/08/08 17:26:54;;;;;;;18.33;16.52;;;;;;;;;;10310157;28;20055;-58
2021/08/08 17:31:53;;;;;;;6.18;4.90;;;;;;;;;;10305543;28;20049;-58
2021/08/08 17:36:51;;;;;;;14.60;13.30;;;;;;;;;;10279909;28;20540;-56
2021/08/08 17:41:55;;;;;;;10.48;8.35;;;;;;;;;;10293902;28;20041;-58
2021/08/08 17:46:54;;;;;;;6.75;5.93;;;;;;;;;;10301261;28;20107;-58
2021/08/08 17:51:52;;;;;;;7.32;6.40;;;;;;;;;;10318487;28;20052;-58
2021/08/08 17:56:52;;;;;;;5.38;4.63;;;;;;;;;;10303002;28;20072;-57
2021/08/08 18:01:50;;;;;;;6.25;4.38;;;;;;;;;;10290921;28;20045;-59
2021/08/08 18:06:49;;;;;;;12.05;5.38;;;;;;;;;;10296819;28;20097;-57
2021/08/08 18:11:47;;;;;;;6.60;2.88;;;;;;;;;;10282886;28;20069;-58
2021/08/08 18:16:47;;;;;;;6.68;2.67;;;;;;;;;;10291536;28;20087;-58
2021/08/08 18:21:45;;;;;;;5.63;5.10;;;;;;;;;;10274245;28;20510;-58
2021/08/08 18:26:44;;;;;;;26.80;23.02;;;;;;;;;;10281037;28;20541;-58
2021/08/08 18:31:43;;;;;;;6.85;3.58;;;;;;;;;;10291298;28;20479;-55
2021/08/08 18:36:44;;;;;;;4.63;3.25;;;;;;;;;;10286065;28;20314;-54
2021/08/08 18:41:42;;;;;;;5.00;3.22;;;;;;;;;;10285598;28;20509;-57
2021/08/08 18:46:40;;;;;;;4.38;3.03;;;;;;;;;;10284711;28;20072;-57
2021/08/08 18:51:39;;;;;;;2.75;2.47;;;;;;;;;;10296854;28;20041;-58
2021/08/08 18:56:38;;;;;;;2.55;2.35;;;;;;;;;;10295134;28;20073;-58
2021/08/08 19:01:37;;;;;;;2.88;2.28;;;;;;;;;;10293677;28;20044;-58
2021/08/08 19:06:35;;;;;;;2.17;1.98;;;;;;;;;;10292943;28;20072;-58
2021/08/08 19:11:34;;;;;;;5.68;2.50;;;;;;;;;;10291382;28;20081;-57
2021/08/08 19:16:33;;;;;;;2.95;2.72;;;;;;;;;;10289342;28;20079;-58
2021/08/08 19:21:32;;;;;;;2.42;2.22;;;;;;;;;;10285374;28;20056;-59
2021/08/08 19:26:30;;;;;;;2.42;2.22;;;;;;;;;;10288579;28;20065;-58
2021/08/08 19:31:28;;;;;;;2.05;1.60;;;;;;;;;;10290765;28;20057;-58
2021/08/08 19:36:28;;;;;;;2.47;2.22;;;;;;;;;;10287559;28;20088;-59
2021/08/08 19:41:26;;;;;;;4.38;2.28;;;;;;;;;;10288376;28;20079;-59
2021/08/08 19:46:25;;;;;;;6.07;4.00;;;;;;;;;;10282985;28;20077;-58
2021/08/08 19:51:23;;;;;;;7.20;3.85;;;;;;;;;;10293175;28;20072;-59
2021/08/08 19:56:23;;;;;;;4.07;2.50;;;;;;;;;;10294282;28;20481;-56
2021/08/08 20:01:21;;;;;;;5.32;3.22;;;;;;;;;;10293298;28;20079;-59
2021/08/08 20:06:20;;;;;;;9.55;2.97;;;;;;;;;;10295994;28;20075;-60
2021/08/08 20:11:18;;;;;;;2.85;2.35;;;;;;;;;;10315114;28;20072;-58
2021/08/08 20:16:18;;;;;;;4.10;3.13;;;;;;;;;;10321503;28;20517;-59
2021/08/08 20:21:16;;;;;;;4.80;2.50;;;;;;;;;;10303975;28;20077;-56
2021/08/08 20:26:15;;;;;;;6.38;2.67;;;;;;;;;;10292693;28;20102;-58
2021/08/08 20:31:14;;;;;;;4.40;2.53;;;;;;;;;;10281876;28;20087;-58
2021/08/08 20:36:14;;;;;;;1.92;1.83;;;;;;;;;;10300048;28;20087;-59
2021/08/08 20:41:12;;;;;;;2.80;2.30;;;;;;;;;;10289647;28;20084;-59
2021/08/08 20:46:10;;;;;;;3.25;1.98;;;;;;;;;;10294034;28;20163;-58
2021/08/08 20:51:09;;;;;;;4.32;2.22;;;;;;;;;;10307457;28;20509;-58
2021/08/08 20:56:09;;;;;;;3.63;2.67;;;;;;;;;;10288190;28;20076;-58
2021/08/08 21:01:07;;;;;;;3.67;2.80;;;;;;;;;;10292391;28;20064;-59
2021/08/08 21:06:06;;;;;;;3.03;2.40;;;;;;;;;;10310675;28;20494;-55
2021/08/08 21:11:04;;;;;;;2.83;2.45;;;;;;;;;;10294544;28;20075;-58
2021/08/08 21:16:04;;;;;;;2.45;2.00;;;;;;;;;;10277516;28;20580;-57
2021/08/08 21:21:03;;;;;;;2.47;2.08;;;;;;;;;;10283102;28;20072;-58
2021/08/08 21:26:01;;;;;;;3.28;1.77;;;;;;;;;;10305751;28;20508;-58
2021/08/08 21:30:59;;;;;;;3.20;1.95;;;;;;;;;;10319189;28;20092;-59
2021/08/08 21:35:59;;;;;;;2.42;2.22;;;;;;;;;;10280313;28;20095;-59
2021/08/08 21:40:57;;;;;;;4.22;2.28;;;;;;;;;;10305585;28;20068;-59
2021/08/08 21:45:56;;;;;;;5.70;2.20;;;;;;;;;;10317057;28;20544;-60
2021/08/08 21:50:54;;;;;;;3.70;2.15;;;;;;;;;;10318213;28;20045;-59
2021/08/08 21:55:54;;;;;;;2.30;2.10;;;;;;;;;;10318148;28;20075;-58
2021/08/08 22:00:52;;;;;;;2.15;1.95;;;;;;;;;;10318106;28;20409;-60
2021/08/08 22:05:51;;;;;;;3.53;2.25;;;;;;;;;;10317901;28;20072;-60
2021/08/08 22:10:49;;;;;;;2.67;2.00;;;;;;;;;;10317544;28;20048;-59
2021/08/08 22:15:51;;;;;;;2.22;2.03;;;;;;;;;;10317015;28;20052;-59
2021/08/08 22:20:49;;;;;;;5.15;2.20;;;;;;;;;;10317564;28;20055;-60
2021/08/08 22:25:47;;;;;;;2.75;2.33;;;;;;;;;;10316694;28;20048;-60
2021/08/08 22:30:46;;;;;;;8.88;2.25;;;;;;;;;;10317180;28;20041;-59
2021/08/08 22:35:45;;;;;;;4.25;2.08;;;;;;;;;;10316460;28;20052;-59
2021/08/08 22:40:44;;;;;;;3.50;2.20;;;;;;;;;;10316726;28;20441;-59
2021/08/08 22:45:42;;;;;;;2.38;2.10;;;;;;;;;;10316605;28;20054;-57
2021/08/08 22:50:40;;;;;;;4.97;2.65;;;;;;;;;;10316013;28;20041;-59
2021/08/08 22:55:40;;;;;;;2.58;2.38;;;;;;;;;;10315824;28;20516;-59
2021/08/08 23:00:38;;;;;;;2.30;2.05;;;;;;;;;;10316232;28;20076;-59
2021/08/08 23:05:37;;;;;;;3.38;2.80;;;;;;;;;;10315702;28;20036;-59
2021/08/08 23:10:35;;;;;;;4.35;2.47;;;;;;;;;;10316170;28;20481;-59
2021/08/08 23:15:35;;;;;;;3.92;2.40;;;;;;;;;;10298695;28;20075;-58
2021/08/08 23:20:33;;;;;;;4.65;2.47;;;;;;;;;;10297466;28;20150;-59
2021/08/08 23:25:35;;;;;;;5.10;2.30;;;;;;;;;;10277505;28;20037;-58
2021/08/08 23:30:34;;;;;;;4.53;2.22;;;;;;;;;;10283462;28;20044;-58
2021/08/08 23:35:33;;;;;;;3.50;2.10;;;;;;;;;;10282422;28;20068;-59
2021/08/08 23:40:31;;;;;;;3.53;2.08;;;;;;;;;;10282862;28;20076;-59
2021/08/08 23:45:29;;;;;;;3.47;2.40;;;;;;;;;;10282669;28;20414;-58
2021/08/08 23:50:29;;;;;;;6.25;2.25;;;;;;;;;;10282375;28;20045;-58
2021/08/08 23:55:27;;;;;;;3.60;2.60;;;;;;;;;;10282211;28;20045;-59
